createdAt,value
2018-09-10T00:02:26.770Z,19.00
2018-09-10T00:04:55.003Z,19.00
2018-09-10T00:07:23.224Z,18.90
2018-09-10T00:09:51.434Z,18.80
2018-09-10T00:12:19.603Z,18.70
2018-09-10T00:14:47.801Z,18.70
2018-09-10T00:17:15.976Z,18.70
2018-09-10T00:19:44.145Z,18.60
2018-09-10T00:22:12.381Z,18.60
2018-09-10T00:24:40.585Z,18.60
2018-09-10T00:27:08.763Z,18.60
2018-09-10T00:29:36.943Z,18.70
2018-09-10T00:32:05.115Z,18.60
2018-09-10T00:34:33.302Z,18.70
2018-09-10T00:37:01.475Z,18.70
2018-09-10T00:39:29.698Z,18.70
2018-09-10T00:41:57.868Z,18.70
2018-09-10T00:44:26.070Z,18.60
2018-09-10T00:46:54.255Z,18.60
2018-09-10T00:49:22.423Z,18.50
2018-09-10T00:51:50.625Z,18.50
2018-09-10T00:54:18.845Z,18.60
2018-09-10T00:56:47.061Z,18.60
2018-09-10T00:59:15.248Z,18.60
2018-09-10T01:01:43.443Z,18.50
2018-09-10T01:04:11.623Z,18.60
2018-09-10T01:06:39.819Z,18.50
2018-09-10T01:09:08.876Z,18.60
2018-09-10T01:11:37.489Z,18.60
2018-09-10T01:14:05.726Z,18.60
2018-09-10T01:16:34.807Z,18.60
2018-09-10T01:19:03.011Z,18.60
2018-09-10T01:21:31.188Z,18.60
2018-09-10T01:23:59.389Z,18.60
2018-09-10T01:26:27.567Z,18.60
2018-09-10T01:28:55.822Z,18.60
2018-09-10T01:31:24.001Z,18.60
2018-09-10T01:33:57.619Z,18.60
2018-09-10T01:36:25.809Z,18.60
2018-09-10T01:38:53.996Z,18.50
2018-09-10T01:41:22.204Z,18.50
2018-09-10T01:43:50.567Z,18.50
2018-09-10T01:46:18.765Z,18.50
2018-09-10T01:48:47.098Z,18.50
2018-09-10T01:51:15.875Z,18.50
2018-09-10T01:53:44.057Z,18.40
2018-09-10T01:56:12.246Z,18.40
2018-09-10T01:58:40.784Z,18.40
2018-09-10T02:01:09.013Z,18.40
2018-09-10T02:03:37.290Z,18.40
2018-09-10T02:06:05.471Z,18.30
2018-09-10T02:08:33.667Z,18.30
2018-09-10T02:11:01.871Z,18.30
2018-09-10T02:13:30.081Z,18.20
2018-09-10T02:15:58.238Z,18.20
2018-09-10T02:18:26.454Z,18.20
2018-09-10T02:20:54.627Z,18.00
2018-09-10T02:23:22.833Z,18.00
2018-09-10T02:25:51.013Z,17.90
2018-09-10T02:28:19.255Z,17.90
2018-09-10T02:30:47.452Z,17.80
2018-09-10T02:33:15.660Z,17.80
2018-09-10T02:35:43.900Z,17.80
2018-09-10T02:38:12.116Z,17.80
2018-09-10T02:40:40.349Z,17.80
2018-09-10T02:43:08.591Z,17.80
2018-09-10T02:45:36.862Z,17.90
2018-09-10T02:48:05.155Z,17.80
2018-09-10T02:50:33.348Z,17.80
2018-09-10T02:53:01.562Z,17.80
2018-09-10T02:55:29.909Z,17.80
2018-09-10T02:57:58.096Z,17.80
2018-09-10T03:00:26.275Z,17.80
2018-09-10T03:02:54.996Z,17.80
2018-09-10T03:05:23.241Z,17.80
2018-09-10T03:07:51.453Z,17.90
2018-09-10T03:10:22.218Z,17.80
2018-09-10T03:12:51.220Z,17.80
2018-09-10T03:15:19.430Z,17.70
2018-09-10T03:17:47.726Z,17.60
2018-09-10T03:20:15.846Z,17.60
2018-09-10T03:22:44.047Z,17.70
2018-09-10T03:25:12.254Z,17.70
2018-09-10T03:27:40.460Z,17.70
2018-09-10T03:30:08.706Z,17.70
2018-09-10T03:32:36.944Z,17.70
2018-09-10T03:35:05.138Z,17.70
2018-09-10T03:37:33.354Z,17.60
2018-09-10T03:40:01.568Z,17.70
2018-09-10T03:42:29.790Z,17.70
2018-09-10T03:44:57.998Z,17.70
2018-09-10T03:47:26.225Z,17.70
2018-09-10T03:49:54.359Z,17.70
2018-09-10T03:52:22.566Z,17.70
2018-09-10T03:54:50.777Z,17.70
2018-09-10T03:57:18.959Z,17.80
2018-09-10T03:59:47.182Z,17.70
2018-09-10T04:02:15.370Z,17.70
2018-09-10T04:04:43.602Z,17.70
2018-09-10T04:07:11.794Z,17.80
2018-09-10T04:09:40.055Z,17.80
2018-09-10T04:12:08.275Z,17.80
2018-09-10T04:14:36.477Z,17.90
2018-09-10T04:17:04.976Z,17.90
2018-09-10T04:19:33.176Z,17.90
2018-09-10T04:22:01.340Z,17.90
2018-09-10T04:24:29.883Z,17.80
2018-09-10T04:26:58.091Z,17.80
2018-09-10T04:29:26.286Z,17.80
2018-09-10T04:31:54.516Z,17.80
2018-09-10T04:34:22.730Z,17.70
2018-09-10T04:36:50.946Z,17.60
2018-09-10T04:39:19.139Z,17.60
2018-09-10T04:41:47.329Z,17.60
2018-09-10T04:44:16.483Z,17.60
2018-09-10T04:46:44.675Z,17.60
2018-09-10T04:49:12.910Z,17.60
2018-09-10T04:51:41.149Z,17.40
2018-09-10T04:54:09.399Z,17.50
2018-09-10T04:56:37.613Z,17.50
2018-09-10T04:59:05.805Z,17.40
2018-09-10T05:01:33.985Z,17.40
2018-09-10T05:04:02.167Z,17.40
2018-09-10T05:06:30.349Z,17.40
2018-09-10T05:08:58.545Z,17.50
2018-09-10T05:11:26.765Z,17.50
2018-09-10T05:13:56.032Z,17.50
2018-09-10T05:16:24.207Z,17.40
2018-09-10T05:18:52.413Z,17.50
2018-09-10T05:21:20.646Z,17.60
2018-09-10T05:23:49.993Z,17.60
2018-09-10T05:26:18.144Z,17.60
2018-09-10T05:28:46.316Z,17.60
2018-09-10T05:31:14.504Z,17.70
2018-09-10T05:33:42.742Z,17.70
2018-09-10T05:36:10.947Z,17.70
2018-09-10T05:38:39.132Z,17.70
2018-09-10T05:41:07.332Z,17.80
2018-09-10T05:43:35.541Z,17.80
2018-09-10T05:46:03.767Z,17.80
2018-09-10T05:48:32.112Z,17.80
2018-09-10T05:51:00.338Z,17.90
2018-09-10T05:53:28.504Z,17.80
2018-09-10T05:55:56.849Z,17.90
2018-09-10T05:58:25.040Z,17.90
2018-09-10T06:00:53.251Z,17.90
2018-09-10T06:03:21.420Z,18.00
2018-09-10T06:05:49.600Z,18.10
2018-09-10T06:08:17.805Z,18.10
2018-09-10T06:10:46.000Z,18.00
2018-09-10T06:13:14.219Z,18.10
2018-09-10T06:15:42.402Z,18.00
2018-09-10T06:18:10.620Z,18.00
2018-09-10T06:20:38.819Z,17.90
2018-09-10T06:23:07.029Z,18.00
2018-09-10T06:25:35.216Z,18.00
2018-09-10T06:28:03.421Z,18.00
2018-09-10T06:30:31.873Z,18.00
2018-09-10T06:33:00.052Z,18.00
2018-09-10T06:35:28.286Z,18.00
2018-09-10T06:37:56.493Z,18.10
2018-09-10T06:40:25.357Z,18.30
2018-09-10T06:42:53.749Z,18.30
2018-09-10T06:45:21.966Z,18.30
2018-09-10T06:47:50.283Z,18.40
2018-09-10T06:50:18.525Z,18.50
2018-09-10T06:52:47.786Z,18.50
2018-09-10T06:55:15.949Z,18.50
2018-09-10T06:57:44.159Z,18.40
2018-09-10T07:00:12.392Z,18.40
2018-09-10T07:02:40.552Z,18.40
2018-09-10T07:05:08.837Z,18.50
2018-09-10T07:07:37.154Z,18.50
2018-09-10T07:10:05.883Z,18.50
2018-09-10T07:12:34.098Z,18.60
2018-09-10T07:15:02.284Z,18.60
2018-09-10T07:17:30.447Z,18.70
2018-09-10T07:19:58.629Z,18.90
2018-09-10T07:22:27.749Z,18.90
2018-09-10T07:24:55.919Z,18.90
2018-09-10T07:27:24.125Z,18.90
2018-09-10T07:29:52.379Z,18.90
2018-09-10T07:32:20.582Z,19.00
2018-09-10T07:34:48.781Z,19.00
2018-09-10T07:37:16.951Z,19.10
2018-09-10T07:39:45.155Z,19.40
2018-09-10T07:42:13.382Z,19.50
2018-09-10T07:44:41.574Z,19.70
2018-09-10T07:47:09.823Z,19.80
2018-09-10T07:49:38.029Z,19.90
2018-09-10T07:52:06.286Z,20.00
2018-09-10T07:54:34.492Z,20.10
2018-09-10T07:57:02.697Z,20.10
2018-09-10T07:59:31.003Z,20.10
2018-09-10T08:01:59.194Z,19.90
2018-09-10T08:04:27.363Z,19.80
2018-09-10T08:06:55.589Z,19.80
2018-09-10T08:09:24.006Z,19.90
2018-09-10T08:11:52.090Z,19.90
2018-09-10T08:14:20.290Z,19.90
2018-09-10T08:16:48.541Z,19.90
2018-09-10T08:19:16.747Z,19.90
2018-09-10T08:21:44.909Z,20.00
2018-09-10T08:24:13.136Z,19.90
2018-09-10T08:26:41.283Z,19.90
2018-09-10T08:29:09.547Z,19.90
2018-09-10T08:31:37.734Z,19.70
2018-09-10T08:34:05.955Z,19.80
2018-09-10T08:36:34.160Z,19.90
2018-09-10T08:39:02.362Z,20.00
2018-09-10T08:41:30.584Z,20.10
2018-09-10T08:43:58.755Z,20.20
2018-09-10T08:46:26.987Z,20.30
2018-09-10T08:48:55.172Z,20.40
2018-09-10T08:51:23.348Z,20.40
2018-09-10T08:53:51.657Z,20.50
2018-09-10T08:56:20.001Z,20.60
2018-09-10T08:58:47.985Z,20.80
2018-09-10T09:01:16.191Z,20.90
2018-09-10T09:03:44.422Z,21.10
2018-09-10T09:06:12.643Z,21.10
2018-09-10T09:08:41.065Z,21.10
2018-09-10T09:11:09.267Z,21.00
2018-09-10T09:13:37.458Z,21.00
2018-09-10T09:16:06.689Z,21.00
2018-09-10T09:18:34.891Z,21.00
2018-09-10T09:21:03.077Z,21.10
2018-09-10T09:23:31.356Z,21.20
2018-09-10T09:25:59.496Z,21.20
2018-09-10T09:28:27.651Z,21.30
2018-09-10T09:30:55.844Z,21.40
2018-09-10T09:33:24.060Z,21.50
2018-09-10T09:35:57.681Z,21.70
2018-09-10T09:38:31.334Z,21.60
2018-09-10T09:41:04.989Z,21.50
2018-09-10T09:43:38.516Z,21.50
2018-09-10T09:46:08.477Z,21.40
2018-09-10T09:48:36.663Z,21.50
2018-09-10T09:51:05.221Z,21.70
2018-09-10T09:53:33.541Z,21.60
2018-09-10T09:56:01.846Z,21.70
2018-09-10T09:58:30.009Z,21.80
2018-09-10T10:01:03.455Z,21.60
2018-09-10T10:03:37.057Z,21.70
2018-09-10T10:06:05.255Z,21.70
2018-09-10T10:08:33.403Z,21.60
2018-09-10T10:11:02.539Z,21.60
2018-09-10T10:13:30.726Z,21.70
2018-09-10T10:15:58.895Z,21.60
2018-09-10T10:18:27.126Z,21.70
2018-09-10T10:20:55.323Z,21.80
2018-09-10T10:23:23.489Z,21.80
2018-09-10T10:25:51.665Z,21.80
2018-09-10T10:28:19.907Z,21.90
2018-09-10T10:30:48.038Z,21.90
2018-09-10T10:33:16.260Z,21.90
2018-09-10T10:35:44.565Z,21.80
2018-09-10T10:38:12.765Z,21.70
2018-09-10T10:40:40.956Z,21.70
2018-09-10T10:43:09.169Z,21.60
2018-09-10T10:45:37.431Z,21.50
2018-09-10T10:48:05.791Z,21.40
2018-09-10T10:50:34.113Z,21.30
2018-09-10T10:53:02.320Z,21.20
2018-09-10T10:55:30.495Z,21.00
2018-09-10T10:57:58.697Z,21.10
2018-09-10T11:00:26.898Z,21.00
2018-09-10T11:02:55.101Z,21.10
2018-09-10T11:05:23.445Z,21.20
2018-09-10T11:07:51.628Z,21.40
2018-09-10T11:10:19.833Z,21.40
2018-09-10T11:12:48.033Z,21.50
2018-09-10T11:15:16.387Z,21.70
2018-09-10T11:17:44.573Z,21.90
2018-09-10T11:20:12.755Z,22.10
2018-09-10T11:22:40.935Z,22.30
2018-09-10T11:25:09.245Z,22.60
2018-09-10T11:27:37.469Z,22.70
2018-09-10T11:30:05.951Z,22.80
2018-09-10T11:32:34.157Z,23.00
2018-09-10T11:35:02.309Z,23.10
2018-09-10T11:37:30.500Z,23.10
2018-09-10T11:39:58.667Z,23.00
2018-09-10T11:42:26.864Z,22.90
2018-09-10T11:44:55.044Z,22.70
2018-09-10T11:47:23.212Z,22.60
2018-09-10T11:49:51.393Z,22.50
2018-09-10T11:52:19.602Z,22.50
2018-09-10T11:54:47.750Z,22.40
2018-09-10T11:57:15.941Z,22.40
2018-09-10T11:59:44.109Z,22.30
2018-09-10T12:02:12.307Z,22.30
2018-09-10T12:04:40.447Z,22.30
2018-09-10T12:07:08.615Z,22.30
2018-09-10T12:09:36.805Z,22.40
2018-09-10T12:12:04.994Z,22.50
2018-09-10T12:14:33.165Z,22.30
2018-09-10T12:17:01.344Z,22.20
2018-09-10T12:19:29.542Z,22.20
2018-09-10T12:21:57.729Z,22.10
2018-09-10T12:24:25.927Z,22.10
2018-09-10T12:26:54.296Z,22.10
2018-09-10T12:29:22.471Z,22.20
2018-09-10T12:31:50.659Z,22.10
2018-09-10T12:34:18.839Z,22.10
2018-09-10T12:36:47.050Z,22.20
2018-09-10T12:39:15.267Z,22.10
2018-09-10T12:41:43.452Z,22.10
2018-09-10T12:44:11.649Z,22.20
2018-09-10T12:46:39.873Z,22.30
2018-09-10T12:49:08.114Z,22.50
2018-09-10T12:51:36.321Z,22.60
2018-09-10T12:54:04.530Z,22.70
2018-09-10T12:56:32.716Z,22.80
2018-09-10T12:59:00.912Z,23.00
2018-09-10T13:01:29.094Z,23.20
2018-09-10T13:03:57.284Z,23.40
2018-09-10T13:06:25.485Z,23.40
2018-09-10T13:08:53.635Z,23.60
2018-09-10T13:11:21.816Z,23.70
2018-09-10T13:13:50.018Z,23.80
2018-09-10T13:16:18.273Z,24.00
2018-09-10T13:18:46.405Z,23.90
2018-09-10T13:21:14.601Z,23.60
2018-09-10T13:23:42.801Z,23.20
2018-09-10T13:26:10.971Z,23.30
2018-09-10T13:28:39.181Z,23.70
2018-09-10T13:31:06.726Z,24.00
2018-09-10T13:33:34.226Z,24.40
2018-09-10T13:36:01.828Z,24.50
2018-09-10T13:38:29.318Z,24.60
2018-09-10T13:40:56.813Z,24.70
2018-09-10T13:43:24.275Z,24.70
2018-09-10T13:45:51.772Z,24.50
2018-09-10T13:48:19.246Z,24.10
2018-09-10T13:50:46.741Z,24.00
2018-09-10T13:53:14.948Z,23.70
2018-09-10T13:55:43.610Z,23.50
2018-09-10T13:58:11.879Z,23.20
2018-09-10T14:00:40.165Z,23.00
2018-09-10T14:03:08.387Z,22.90
2018-09-10T14:05:36.606Z,22.80
2018-09-10T14:08:04.855Z,22.80
2018-09-10T14:10:33.128Z,22.90
2018-09-10T14:13:01.232Z,23.00
2018-09-10T14:15:29.418Z,23.10
2018-09-10T14:17:57.616Z,23.10
2018-09-10T14:20:25.777Z,23.10
2018-09-10T14:22:53.990Z,23.10
2018-09-10T14:25:22.929Z,23.20
2018-09-10T14:27:51.118Z,23.20
2018-09-10T14:30:19.299Z,23.40
2018-09-10T14:32:47.514Z,23.50
2018-09-10T14:35:15.724Z,23.40
2018-09-10T14:37:44.079Z,23.40
2018-09-10T14:40:12.457Z,23.20
2018-09-10T14:42:40.684Z,23.00
2018-09-10T14:45:08.961Z,23.00
2018-09-10T14:47:37.131Z,22.90
2018-09-10T14:50:05.349Z,23.00
2018-09-10T14:52:34.159Z,22.90
2018-09-10T14:55:02.340Z,23.00
2018-09-10T14:57:30.571Z,23.00
2018-09-10T15:02:49.402Z,23.00
2018-09-10T15:05:17.628Z,23.00
2018-09-10T15:07:45.874Z,23.00
2018-09-10T15:10:14.135Z,23.00
2018-09-10T15:12:42.370Z,22.90
2018-09-10T15:15:10.727Z,23.00
2018-09-10T15:17:38.954Z,23.10
2018-09-10T15:20:07.266Z,23.10
2018-09-10T15:22:35.538Z,23.10
2018-09-10T15:25:04.063Z,23.10
2018-09-10T15:27:32.324Z,22.80
2018-09-10T15:30:01.254Z,22.70
2018-09-10T15:32:30.552Z,22.50
2018-09-10T15:34:58.787Z,22.30
2018-09-10T15:37:26.958Z,22.30
2018-09-10T15:39:55.180Z,22.30
2018-09-10T15:42:23.411Z,22.30
2018-09-10T15:44:51.615Z,22.20
2018-09-10T15:47:19.818Z,22.20
2018-09-10T15:49:48.103Z,22.20
2018-09-10T15:52:16.307Z,22.30
2018-09-10T15:54:44.520Z,22.40
2018-09-10T15:57:12.733Z,22.40
2018-09-10T15:59:40.953Z,22.50
2018-09-10T16:02:09.185Z,22.50
2018-09-10T16:04:37.395Z,22.50
2018-09-10T16:07:05.627Z,22.60
2018-09-10T16:09:33.815Z,22.60
2018-09-10T16:12:02.010Z,22.50
2018-09-10T16:14:30.235Z,22.50
2018-09-10T16:16:58.493Z,22.60
2018-09-10T16:19:26.706Z,22.50
2018-09-10T16:21:54.922Z,22.40
2018-09-10T16:24:23.129Z,22.40
2018-09-10T16:26:51.376Z,22.40
2018-09-10T16:29:19.590Z,22.50
2018-09-10T16:31:47.824Z,22.40
2018-09-10T16:34:16.152Z,22.40
2018-09-10T16:36:44.381Z,22.40
2018-09-10T16:39:12.893Z,22.30
2018-09-10T16:41:41.123Z,22.30
2018-09-10T16:44:09.356Z,22.30
2018-09-10T16:46:37.756Z,22.30
2018-09-10T16:49:05.940Z,22.10
2018-09-10T16:51:34.338Z,22.10
2018-09-10T16:54:02.557Z,22.00
2018-09-10T16:56:30.816Z,22.00
2018-09-10T16:58:59.031Z,22.00
2018-09-10T17:01:27.302Z,21.90
2018-09-10T17:03:55.531Z,21.80
2018-09-10T17:06:23.761Z,21.90
2018-09-10T17:08:51.947Z,21.80
2018-09-10T17:11:20.167Z,21.70
2018-09-10T17:13:48.364Z,21.60
2018-09-10T17:16:16.772Z,21.60
2018-09-10T17:18:45.029Z,21.60
2018-09-10T17:21:13.221Z,21.70
2018-09-10T17:23:41.448Z,21.70
2018-09-10T17:26:09.642Z,21.80
2018-09-10T17:28:37.830Z,21.80
2018-09-10T17:31:06.091Z,21.80
2018-09-10T17:33:34.321Z,21.90
2018-09-10T17:36:02.556Z,21.90
2018-09-10T17:38:30.790Z,21.90
2018-09-10T17:40:58.951Z,22.00
2018-09-10T17:43:27.177Z,21.90
2018-09-10T17:45:55.374Z,21.90
2018-09-10T17:48:23.575Z,22.00
2018-09-10T17:50:51.828Z,22.00
2018-09-10T17:53:20.044Z,21.90
2018-09-10T17:55:48.271Z,21.90
2018-09-10T17:58:16.496Z,22.00
2018-09-10T18:00:46.836Z,22.00
2018-09-10T18:03:15.065Z,22.00
2018-09-10T18:05:44.012Z,21.90
2018-09-10T18:08:12.515Z,21.90
2018-09-10T18:10:40.771Z,21.90
2018-09-10T18:13:08.978Z,21.80
2018-09-10T18:15:37.205Z,21.70
2018-09-10T18:18:05.516Z,21.60
2018-09-10T18:20:34.124Z,21.40
2018-09-10T18:23:02.422Z,21.40
2018-09-10T18:25:30.646Z,21.40
2018-09-10T18:27:58.869Z,21.30
2018-09-10T18:30:27.161Z,21.30
2018-09-10T18:32:55.382Z,21.30
2018-09-10T18:35:23.584Z,21.30
2018-09-10T18:37:51.805Z,21.20
2018-09-10T18:40:20.335Z,21.10
2018-09-10T18:42:48.532Z,21.00
2018-09-10T18:45:16.745Z,20.90
2018-09-10T18:47:45.022Z,20.80
2018-09-10T18:50:13.202Z,20.70
2018-09-10T18:52:41.801Z,20.60
2018-09-10T18:55:21.056Z,20.50
2018-09-10T18:57:49.306Z,20.40
2018-09-10T19:00:17.507Z,20.30
2018-09-10T19:02:50.707Z,20.20
2018-09-10T19:05:18.962Z,20.10
2018-09-10T19:07:47.325Z,20.10
2018-09-10T19:10:15.502Z,20.00
2018-09-10T19:12:43.682Z,19.90
2018-09-10T19:15:11.890Z,19.80
2018-09-10T19:17:40.080Z,19.80
2018-09-10T19:20:08.321Z,19.80
2018-09-10T19:22:36.521Z,19.70
2018-09-10T19:25:04.694Z,19.70
2018-09-10T19:27:32.871Z,19.70
2018-09-10T19:30:01.038Z,19.60
2018-09-10T19:32:29.239Z,19.60
2018-09-10T19:34:57.432Z,19.60
2018-09-10T19:37:25.677Z,19.60
2018-09-10T19:39:53.855Z,19.60
2018-09-10T19:42:22.071Z,19.50
2018-09-10T19:44:50.330Z,19.60
2018-09-10T19:47:18.523Z,19.60
2018-09-10T19:49:46.729Z,19.70
2018-09-10T19:52:14.967Z,19.80
2018-09-10T19:54:43.130Z,19.80
2018-09-10T19:57:11.353Z,19.90
2018-09-10T19:59:39.620Z,19.90
2018-09-10T20:02:07.762Z,20.00
2018-09-10T20:04:35.943Z,20.00
2018-09-10T20:07:04.234Z,20.00
2018-09-10T20:09:32.415Z,20.00
2018-09-10T20:12:00.713Z,20.00
2018-09-10T20:14:28.906Z,20.00
2018-09-10T20:16:57.119Z,20.00
2018-09-10T20:19:25.340Z,20.00
2018-09-10T20:21:53.585Z,20.00
2018-09-10T20:24:21.774Z,20.00
2018-09-10T20:26:49.938Z,19.90
2018-09-10T20:29:18.162Z,19.90
2018-09-10T20:31:46.393Z,19.90
2018-09-10T20:34:14.574Z,19.80
2018-09-10T20:36:42.747Z,19.80
2018-09-10T20:39:13.077Z,19.80
2018-09-10T20:41:41.263Z,19.80
2018-09-10T20:44:09.883Z,19.80
2018-09-10T20:46:38.518Z,19.80
2018-09-10T20:49:06.709Z,19.70
2018-09-10T20:51:34.897Z,19.70
2018-09-10T20:54:03.089Z,19.70
2018-09-10T20:56:31.275Z,19.60
2018-09-10T20:58:59.472Z,19.60
2018-09-10T21:01:27.659Z,19.50
2018-09-10T21:03:55.837Z,19.40
2018-09-10T21:06:24.113Z,19.40
2018-09-10T21:08:52.325Z,19.30
2018-09-10T21:11:20.516Z,19.30
2018-09-10T21:13:48.717Z,19.20
2018-09-10T21:16:16.913Z,19.20
2018-09-10T21:18:45.093Z,19.10
2018-09-10T21:22:50.248Z,19.10
2018-09-10T21:25:18.449Z,19.00
2018-09-10T21:27:46.632Z,18.90
2018-09-10T21:30:14.805Z,18.90
2018-09-10T21:32:42.993Z,18.80
2018-09-10T21:35:11.172Z,18.70
2018-09-10T21:37:39.347Z,18.60
2018-09-10T21:40:07.525Z,18.50
2018-09-10T21:42:35.743Z,18.40
2018-09-10T21:45:03.936Z,18.30
2018-09-10T21:47:32.120Z,18.30
2018-09-10T21:50:00.331Z,18.30
2018-09-10T21:52:28.797Z,18.30
2018-09-10T21:54:56.977Z,18.30
2018-09-10T21:57:25.186Z,18.30
2018-09-10T21:59:53.385Z,18.30
2018-09-10T22:02:21.551Z,18.30
2018-09-10T22:04:49.739Z,18.20
2018-09-10T22:07:17.941Z,18.30
2018-09-10T22:09:46.154Z,18.30
2018-09-10T22:12:14.328Z,18.30
2018-09-10T22:14:42.519Z,18.30
2018-09-10T22:17:10.711Z,18.30
2018-09-10T22:19:38.886Z,18.20
2018-09-10T22:22:07.120Z,18.20
2018-09-10T22:24:35.384Z,18.20
2018-09-10T22:27:03.546Z,18.00
2018-09-10T22:29:31.741Z,18.00
2018-09-10T22:31:59.965Z,18.10
2018-09-10T22:34:28.167Z,18.10
2018-09-10T22:36:56.369Z,18.10
2018-09-10T22:39:24.535Z,18.10
2018-09-10T22:41:52.738Z,18.00
2018-09-10T22:44:21.014Z,17.90
2018-09-10T22:46:49.110Z,17.90
2018-09-10T22:49:17.296Z,17.90
2018-09-10T22:51:45.454Z,17.80
2018-09-10T22:54:13.645Z,17.80
2018-09-10T22:56:41.870Z,17.80
2018-09-10T22:59:10.065Z,17.70
2018-09-10T23:01:38.273Z,17.70
2018-09-10T23:04:06.497Z,17.70
2018-09-10T23:06:34.723Z,17.60
2018-09-10T23:09:03.725Z,17.50
2018-09-10T23:11:31.910Z,17.60
2018-09-10T23:14:00.111Z,17.70
2018-09-10T23:16:28.337Z,17.70
2018-09-10T23:18:56.521Z,17.60
2018-09-10T23:21:25.235Z,17.50
2018-09-10T23:23:53.447Z,17.50
2018-09-10T23:26:28.267Z,17.40
2018-09-10T23:28:56.461Z,17.50
2018-09-10T23:31:24.658Z,17.40
2018-09-10T23:33:52.807Z,17.40
2018-09-10T23:36:21.023Z,17.40
2018-09-10T23:38:49.209Z,17.30
2018-09-10T23:41:17.391Z,17.40
2018-09-10T23:43:45.563Z,17.30
2018-09-10T23:46:13.795Z,17.30
2018-09-10T23:48:41.993Z,17.20
2018-09-10T23:51:10.189Z,17.10
2018-09-10T23:53:38.392Z,17.20
2018-09-10T23:56:06.590Z,17.20
2018-09-10T23:58:34.773Z,17.10
